Time;durP1;ratioP1;P1;durP2;ratioP2;P2;SDS_P1;SDS_P2;PMS_P1;PMS_P2;Temp;Humidity;BMP_temperature;BMP_pressure;BME280_temperature;BME280_humidity;BME280_pressure;Samples;Min_cycle;Max_cycle;Signal;HPM_P1;HPM_P2
2022/12/03 00:01:05;;;;;;;5.40;2.78;;;3.40;99.90;;;;;;5015728;28;20029;-67
2022/12/03 00:03:34;;;;;;;3.65;1.95;;;3.40;99.90;;;;;;5028832;28;20029;-67
2022/12/03 00:06:00;;;;;;;5.72;3.20;;;3.40;99.90;;;;;;5016377;28;20026;-67
2022/12/03 00:08:25;;;;;;;3.78;2.35;;;3.30;99.90;;;;;;5028018;28;20044;-67
2022/12/03 00:10:51;;;;;;;8.95;2.95;;;3.30;99.90;;;;;;5017851;28;20017;-67
2022/12/03 00:13:17;;;;;;;5.88;2.13;;;3.40;99.90;;;;;;5027134;28;20038;-67
2022/12/03 00:15:42;;;;;;;9.25;2.50;;;3.40;99.90;;;;;;5018404;28;20048;-67
2022/12/03 00:18:08;;;;;;;5.13;1.73;;;3.40;99.90;;;;;;5025494;28;20384;-67
2022/12/03 00:20:34;;;;;;;6.13;2.78;;;3.40;99.90;;;;;;5002409;28;20079;-67
2022/12/03 00:22:59;;;;;;;6.68;1.83;;;3.40;99.90;;;;;;5024243;28;20030;-67
2022/12/03 00:25:25;;;;;;;6.47;2.25;;;3.40;99.90;;;;;;5020421;28;20112;-67
2022/12/03 00:27:51;;;;;;;7.57;3.00;;;3.40;99.90;;;;;;5013993;28;20033;-67
2022/12/03 00:30:16;;;;;;;4.80;2.47;;;3.40;99.90;;;;;;5020368;28;20048;-67
2022/12/03 00:32:42;;;;;;;5.20;2.67;;;3.40;99.90;;;;;;5023317;28;20083;-67
2022/12/03 00:35:08;;;;;;;5.22;2.90;;;3.40;99.90;;;;;;5020400;28;20427;-67
2022/12/03 00:37:34;;;;;;;4.45;2.90;;;3.40;99.90;;;;;;5023278;28;20358;-67
2022/12/03 00:40:02;;;;;;;5.05;2.83;;;3.40;99.90;;;;;;5019935;28;20056;-67
2022/12/03 00:42:28;;;;;;;3.47;2.25;;;3.40;99.90;;;;;;5023352;28;20033;-67
2022/12/03 00:44:54;;;;;;;1.70;1.48;;;3.40;99.90;;;;;;5020033;28;20124;-67
2022/12/03 00:47:19;;;;;;;6.35;2.83;;;3.30;99.90;;;;;;5023097;28;20496;-67
2022/12/03 00:49:45;;;;;;;4.47;2.83;;;3.30;99.90;;;;;;5019702;28;20045;-67
2022/12/03 00:52:11;;;;;;;5.05;2.30;;;3.30;99.90;;;;;;5013665;28;20029;-67
2022/12/03 00:54:36;;;;;;;6.35;2.38;;;3.30;99.90;;;;;;5024232;28;20034;-66
2022/12/03 00:57:02;;;;;;;3.45;2.20;;;3.30;99.90;;;;;;5022955;28;20028;-66
2022/12/03 00:59:28;;;;;;;3.50;2.78;;;3.30;99.90;;;;;;5002638;28;20470;-66
2022/12/03 01:01:54;;;;;;;8.68;4.00;;;3.30;99.90;;;;;;5022817;28;20021;-66
2022/12/03 01:04:20;;;;;;;6.78;3.38;;;3.30;99.90;;;;;;5022057;28;20031;-66
2022/12/03 01:06:45;;;;;;;7.97;4.25;;;3.40;99.90;;;;;;5019418;28;20406;-66
2022/12/03 01:09:11;;;;;;;6.60;3.00;;;3.30;99.90;;;;;;5026148;28;20037;-66
2022/12/03 01:11:36;;;;;;;6.22;3.05;;;3.30;99.90;;;;;;5020213;28;20081;-66
2022/12/03 01:14:15;;;;;;;8.38;3.08;;;3.30;99.90;;;;;;5025902;28;20057;-66
2022/12/03 01:16:41;;;;;;;4.97;2.78;;;3.30;99.90;;;;;;5024374;28;20026;-66
2022/12/03 01:19:09;;;;;;;5.05;2.70;;;3.20;99.90;;;;;;5025300;28;20045;-66
2022/12/03 01:21:36;;;;;;;4.68;3.00;;;3.40;99.90;;;;;;5016482;28;20524;-66
2022/12/03 01:24:03;;;;;;;7.25;3.33;;;3.30;99.90;;;;;;5008994;28;20580;-66
2022/12/03 01:26:29;;;;;;;9.40;3.90;;;3.20;99.90;;;;;;5015923;28;20030;-66
2022/12/03 01:28:54;;;;;;;4.70;3.05;;;3.20;99.90;;;;;;5027941;28;20120;-66
2022/12/03 01:34:05;;;;;;;5.50;3.53;;;3.20;99.90;;;;;;4992538;28;20066;-66
2022/12/03 01:36:33;;;;;;;3.70;2.25;;;3.10;99.90;;;;;;5006846;28;20072;-66
2022/12/03 01:38:59;;;;;;;7.32;2.78;;;3.10;99.90;;;;;;5009961;28;20045;-66
2022/12/03 01:41:26;;;;;;;9.13;2.90;;;3.10;99.90;;;;;;5002291;28;20028;-66
2022/12/03 01:43:53;;;;;;;6.32;3.15;;;3.10;99.90;;;;;;5011294;28;20021;-66
2022/12/03 01:46:23;;;;;;;8.90;4.38;;;3.10;99.90;;;;;;5014336;28;20076;-67
2022/12/03 01:48:52;;;;;;;8.07;2.87;;;3.10;99.90;;;;;;5012167;28;20532;-67
2022/12/03 01:51:18;;;;;;;7.07;3.22;;;3.20;99.90;;;;;;5000257;28;20104;-66
2022/12/03 01:53:44;;;;;;;7.63;2.63;;;3.20;99.90;;;;;;5028914;28;20108;-67
2022/12/03 01:56:17;;;;;;;10.93;4.20;;;3.30;99.90;;;;;;4998560;28;20022;-66
2022/12/03 01:58:45;;;;;;;8.57;3.53;;;3.30;99.90;;;;;;5012685;28;20517;-66
2022/12/03 02:01:17;;;;;;;6.53;4.00;;;3.40;99.90;;;;;;4998432;28;20062;-67
2022/12/03 02:03:45;;;;;;;6.05;2.25;;;3.30;99.90;;;;;;5012610;28;20033;-67
2022/12/03 02:06:20;;;;;;;8.95;4.70;;;3.30;99.90;;;;;;5000679;28;20042;-67
2022/12/03 02:08:48;;;;;;;6.70;3.75;;;3.30;99.90;;;;;;4992269;28;20091;-67
2022/12/03 02:11:37;;;;;;;7.93;4.18;;;3.40;99.90;;;;;;5017514;28;20038;-66
2022/12/03 02:14:09;;;;;;;6.72;3.00;;;3.40;99.90;;;;;;4991922;28;20035;-66
2022/12/03 02:16:38;;;;;;;9.75;3.80;;;3.40;99.90;;;;;;5019688;28;20022;-67
2022/12/03 02:19:23;;;;;;;6.90;2.97;;;3.40;99.90;;;;;;5011646;28;20029;-66
2022/12/03 02:21:59;;;;;;;8.27;3.17;;;3.40;99.90;;;;;;5023619;28;20022;-66
2022/12/03 02:24:52;;;;;;;12.80;4.50;;;3.30;99.90;;;;;;5000154;28;20030;-66
2022/12/03 02:27:18;;;;;;;8.07;3.67;;;3.30;99.90;;;;;;5001162;28;20367;-66
2022/12/03 02:29:44;;;;;;;8.48;4.75;;;3.30;99.90;;;;;;5004665;28;20100;-66
2022/12/03 02:32:09;;;;;;;8.68;3.70;;;3.30;99.90;;;;;;5016101;28;20075;-67
2022/12/03 02:34:44;;;;;;;8.05;4.40;;;3.30;99.90;;;;;;5004436;28;20034;-67
2022/12/03 02:37:16;;;;;;;10.63;3.75;;;3.30;99.90;;;;;;5015934;28;20393;-66
2022/12/03 02:39:48;;;;;;;4.55;2.85;;;3.40;99.90;;;;;;5005397;28;20110;-66
2022/12/03 02:45:06;;;;;;;5.03;2.75;;;3.50;99.90;;;;;;5013488;28;20414;-66
2022/12/03 02:47:45;;;;;;;9.43;4.13;;;3.50;99.90;;;;;;5016452;28;20025;-66
2022/12/03 02:50:16;;;;;;;14.43;6.38;;;3.50;99.90;;;;;;5004616;28;20572;-66
2022/12/03 02:52:45;;;;;;;8.60;4.18;;;3.50;99.90;;;;;;5016415;28;20108;-66
2022/12/03 02:55:13;;;;;;;10.93;4.72;;;3.50;99.90;;;;;;5004542;28;20049;-66
2022/12/03 02:57:40;;;;;;;12.45;4.05;;;3.50;99.90;;;;;;5015674;28;20029;-66
2022/12/03 03:00:09;;;;;;;8.25;4.13;;;3.50;99.90;;;;;;5021250;28;20381;-66
2022/12/03 03:02:36;;;;;;;7.05;4.28;;;3.60;99.90;;;;;;5024767;28;20021;-66
2022/12/03 03:05:05;;;;;;;5.80;3.45;;;3.50;99.90;;;;;;5021680;28;20449;-66
2022/12/03 03:07:31;;;;;;;11.73;4.70;;;3.50;99.90;;;;;;5015914;28;20033;-66
2022/12/03 03:09:58;;;;;;;17.23;3.72;;;3.50;99.90;;;;;;5021400;28;20071;-66
2022/12/03 03:12:24;;;;;;;8.18;4.35;;;3.50;99.90;;;;;;5015530;28;20029;-66
2022/12/03 03:14:50;;;;;;;9.05;4.47;;;3.60;99.90;;;;;;5023726;28;20462;-66
2022/12/03 03:17:16;;;;;;;6.75;4.20;;;3.50;99.90;;;;;;5025056;28;20021;-66
2022/12/03 03:19:42;;;;;;;12.38;5.38;;;3.50;99.90;;;;;;5003513;28;20104;-66
2022/12/03 03:22:10;;;;;;;7.82;5.15;;;3.40;99.90;;;;;;5014977;28;20057;-66
2022/12/03 03:24:37;;;;;;;6.20;3.55;;;3.50;99.90;;;;;;5004404;28;20096;-66
2022/12/03 03:27:06;;;;;;;11.48;5.45;;;3.50;99.90;;;;;;5019651;28;20029;-66
2022/12/03 03:29:33;;;;;;;13.90;5.07;;;3.40;99.90;;;;;;4963848;28;20113;-65
2022/12/03 03:32:01;;;;;;;10.45;5.13;;;3.40;99.90;;;;;;5024506;28;20018;-65
2022/12/03 03:34:29;;;;;;;7.20;4.05;;;3.40;99.90;;;;;;5004340;28;20026;-65
2022/12/03 03:36:54;;;;;;;11.20;4.40;;;3.50;99.90;;;;;;5012860;28;20017;-66
2022/12/03 03:39:20;;;;;;;17.27;4.07;;;3.50;99.90;;;;;;5008052;28;20753;-65
2022/12/03 03:41:46;;;;;;;6.95;4.47;;;3.50;99.90;;;;;;5022170;28;20064;-65
2022/12/03 03:44:12;;;;;;;8.88;4.85;;;3.50;99.90;;;;;;5025582;28;20095;-66
2022/12/03 03:46:39;;;;;;;8.27;4.28;;;3.60;99.90;;;;;;5018863;28;20493;-66
2022/12/03 03:49:05;;;;;;;10.43;4.68;;;3.50;99.90;;;;;;5009529;28;20068;-65
2022/12/03 03:51:33;;;;;;;9.82;5.30;;;3.50;99.90;;;;;;5016711;28;20064;-65
2022/12/03 03:54:01;;;;;;;14.70;5.43;;;3.60;99.90;;;;;;5028436;28;20124;-66
2022/12/03 03:56:26;;;;;;;10.75;4.80;;;3.40;99.90;;;;;;5016040;28;20018;-66
2022/12/03 03:58:54;;;;;;;6.80;3.28;;;3.30;99.90;;;;;;5029977;28;20464;-66
2022/12/03 04:01:19;;;;;;;13.07;5.90;;;3.30;99.90;;;;;;5015940;28;20018;-65
2022/12/03 04:03:45;;;;;;;7.07;4.28;;;3.40;99.90;;;;;;5011188;28;20030;-65
2022/12/03 04:06:11;;;;;;;7.63;4.28;;;3.40;99.90;;;;;;5010725;28;20038;-65
2022/12/03 04:08:36;;;;;;;9.63;3.50;;;3.50;99.90;;;;;;5029194;28;20086;-66
2022/12/03 04:13:47;;;;;;;6.78;4.32;;;3.50;99.90;;;;;;5012767;28;20029;-66
2022/12/03 04:16:12;;;;;;;15.65;4.47;;;3.40;99.90;;;;;;5016373;28;20472;-66
2022/12/03 04:18:44;;;;;;;13.02;5.18;;;3.40;99.90;;;;;;5013749;28;20049;-66
2022/12/03 04:23:58;;;;;;;10.15;3.78;;;3.40;99.90;;;;;;4992360;28;20642;-66
2022/12/03 04:29:08;;;;;;;8.38;3.47;;;3.50;99.90;;;;;;4991883;28;20037;-67
2022/12/03 04:37:03;;;;;;;9.85;4.70;;;3.50;99.90;;;;;;5016243;28;20029;-66
2022/12/03 04:39:30;;;;;;;12.20;4.45;;;3.50;99.90;;;;;;5009504;28;20030;-66
2022/12/03 04:41:55;;;;;;;8.07;4.45;;;3.50;99.90;;;;;;5015470;28;20437;-66
2022/12/03 04:44:34;;;;;;;9.40;4.35;;;3.50;99.90;;;;;;5013284;28;20033;-66
2022/12/03 04:47:09;;;;;;;8.70;4.30;;;3.40;99.90;;;;;;5017938;28;20111;-66
2022/12/03 04:49:41;;;;;;;7.88;4.90;;;3.40;99.90;;;;;;5028329;28;20037;-65
2022/12/03 04:52:09;;;;;;;10.35;4.50;;;3.40;99.90;;;;;;5016502;28;20040;-66
2022/12/03 04:54:35;;;;;;;12.07;5.00;;;3.20;99.90;;;;;;5013266;28;20036;-65
2022/12/03 04:57:01;;;;;;;14.18;4.28;;;3.30;99.90;;;;;;5017221;28;20021;-66
2022/12/03 04:59:27;;;;;;;8.18;4.55;;;3.30;99.90;;;;;;5026966;28;20036;-67
2022/12/03 05:01:53;;;;;;;8.45;4.30;;;3.20;99.90;;;;;;5018481;28;20041;-67
2022/12/03 05:04:19;;;;;;;15.65;5.95;;;3.20;99.90;;;;;;5025968;28;20029;-67
2022/12/03 05:06:45;;;;;;;9.77;4.80;;;3.20;99.90;;;;;;5019586;28;20468;-67
2022/12/03 05:09:11;;;;;;;7.10;3.95;;;3.20;99.90;;;;;;5024465;28;20699;-67
2022/12/03 05:11:38;;;;;;;7.57;3.67;;;3.30;99.90;;;;;;5023591;28;20112;-67
2022/12/03 05:14:03;;;;;;;13.52;5.15;;;3.30;99.90;;;;;;5012592;28;20036;-67
2022/12/03 05:16:29;;;;;;;20.15;5.50;;;3.30;99.90;;;;;;5019216;28;20034;-67
2022/12/03 05:18:55;;;;;;;11.55;4.68;;;3.30;99.90;;;;;;5012800;28;20676;-67
2022/12/03 05:21:21;;;;;;;16.10;4.63;;;3.30;99.90;;;;;;5021549;28;20026;-67
2022/12/03 05:23:47;;;;;;;19.45;4.82;;;3.30;99.90;;;;;;5022339;28;20033;-67
2022/12/03 05:26:13;;;;;;;22.77;7.22;;;3.20;99.90;;;;;;5021358;28;20036;-67
2022/12/03 05:28:39;;;;;;;16.90;7.22;;;3.20;99.90;;;;;;5012544;28;20413;-67
2022/12/03 05:31:05;;;;;;;15.00;4.57;;;3.10;99.90;;;;;;5024877;28;20025;-67
2022/12/03 05:33:31;;;;;;;10.23;4.93;;;3.20;99.90;;;;;;5022387;28;20030;-67
2022/12/03 05:35:57;;;;;;;13.90;4.95;;;3.20;99.90;;;;;;5024423;28;20034;-67
2022/12/03 05:38:23;;;;;;;16.98;6.20;;;3.20;99.90;;;;;;5012402;28;20025;-67
2022/12/03 05:40:48;;;;;;;13.50;7.82;;;3.10;99.90;;;;;;5021106;28;20040;-67
2022/12/03 05:43:14;;;;;;;12.38;4.72;;;3.10;99.90;;;;;;5022179;28;20482;-67
2022/12/03 05:45:42;;;;;;;15.50;5.85;;;3.10;99.90;;;;;;5003861;28;20084;-67
2022/12/03 05:48:12;;;;;;;14.50;5.60;;;3.10;99.90;;;;;;5021842;28;20400;-67
2022/12/03 05:50:44;;;;;;;12.63;5.60;;;3.10;99.90;;;;;;5004258;28;20036;-67
2022/12/03 05:53:11;;;;;;;15.48;6.60;;;3.10;99.90;;;;;;5016043;28;20095;-67
2022/12/03 05:55:37;;;;;;;18.20;5.45;;;3.10;99.90;;;;;;5025212;28;20050;-67
2022/12/03 05:58:04;;;;;;;11.65;6.25;;;3.20;99.90;;;;;;5016355;28;20049;-67
2022/12/03 06:00:36;;;;;;;15.20;6.00;;;3.20;99.90;;;;;;5007418;28;20029;-67
2022/12/03 06:03:06;;;;;;;7.68;3.42;;;3.20;99.90;;;;;;5000502;28;20420;-67
2022/12/03 06:05:33;;;;;;;10.68;5.60;;;3.10;99.90;;;;;;5025076;28;20440;-67
2022/12/03 06:07:59;;;;;;;10.70;4.50;;;3.10;99.90;;;;;;5014641;28;20079;-67
2022/12/03 06:10:26;;;;;;;14.55;5.85;;;3.20;99.90;;;;;;5010796;28;20018;-67
2022/12/03 06:12:52;;;;;;;10.20;4.72;;;3.10;99.90;;;;;;5001009;28;20041;-67
2022/12/03 06:15:19;;;;;;;9.82;4.60;;;2.90;99.90;;;;;;5000957;28;20038;-67
2022/12/03 06:17:45;;;;;;;8.80;4.78;;;2.90;99.90;;;;;;5011909;28;20063;-67
2022/12/03 06:20:17;;;;;;;11.32;4.95;;;2.90;99.90;;;;;;4982734;28;20103;-67
2022/12/03 06:22:44;;;;;;;14.63;5.95;;;2.90;99.90;;;;;;4995777;28;20038;-67
2022/12/03 06:25:11;;;;;;;10.40;3.35;;;2.90;99.90;;;;;;4989896;28;20040;-67
2022/12/03 06:27:36;;;;;;;12.18;4.40;;;2.90;99.90;;;;;;4986228;28;20112;-67
2022/12/03 06:30:05;;;;;;;10.68;4.47;;;2.90;99.90;;;;;;4994060;28;20049;-66
2022/12/03 06:32:30;;;;;;;12.55;5.32;;;2.80;99.90;;;;;;5013046;28;20049;-66
2022/12/03 06:34:56;;;;;;;12.50;5.88;;;2.80;99.90;;;;;;5019879;28;20034;-66
2022/12/03 06:37:22;;;;;;;18.17;6.00;;;2.80;99.90;;;;;;5029263;28;20021;-66
2022/12/03 06:39:47;;;;;;;15.27;6.10;;;2.80;99.90;;;;;;5020665;28;20319;-66
2022/12/03 06:42:13;;;;;;;17.25;5.78;;;2.80;99.90;;;;;;5027578;28;20041;-66
2022/12/03 06:44:39;;;;;;;5.97;3.58;;;2.60;99.90;;;;;;5022087;28;20108;-66
2022/12/03 06:47:04;;;;;;;9.68;5.50;;;2.60;99.90;;;;;;5026669;28;20033;-66
2022/12/03 06:49:30;;;;;;;13.85;6.20;;;2.40;99.90;;;;;;5023261;28;20036;-66
2022/12/03 06:51:56;;;;;;;12.52;5.57;;;2.40;99.90;;;;;;5025513;28;20060;-66
2022/12/03 06:54:21;;;;;;;10.93;5.80;;;2.30;99.90;;;;;;5023276;28;20033;-66
2022/12/03 06:56:47;;;;;;;10.25;4.57;;;2.30;99.90;;;;;;5024643;28;20036;-66
2022/12/03 06:59:13;;;;;;;16.17;5.93;;;2.20;99.90;;;;;;5023077;28;20079;-66
2022/12/03 07:01:39;;;;;;;18.30;7.03;;;2.30;99.90;;;;;;5015331;28;20065;-66
2022/12/03 07:04:05;;;;;;;12.52;4.90;;;2.30;99.90;;;;;;5012712;28;20040;-66
2022/12/03 07:06:30;;;;;;;12.45;6.22;;;2.20;99.90;;;;;;5017961;28;20029;-66
2022/12/03 07:08:56;;;;;;;12.50;5.90;;;2.20;99.90;;;;;;5015155;28;20075;-66
2022/12/03 07:11:30;;;;;;;14.68;6.90;;;2.20;99.90;;;;;;5024728;28;20064;-66
2022/12/03 07:14:01;;;;;;;11.18;6.22;;;2.20;99.90;;;;;;5022875;28;20096;-66
2022/12/03 07:16:27;;;;;;;21.58;5.65;;;2.20;99.90;;;;;;5024906;28;20027;-66
2022/12/03 07:18:53;;;;;;;10.32;6.40;;;2.20;99.90;;;;;;5009824;28;20552;-66
2022/12/03 07:21:19;;;;;;;14.38;7.78;;;2.20;99.90;;;;;;5024667;28;20265;-66
2022/12/03 07:23:45;;;;;;;14.77;7.63;;;2.10;99.90;;;;;;5022824;28;20069;-66
2022/12/03 07:26:10;;;;;;;7.55;3.97;;;2.20;99.90;;;;;;5014596;28;20025;-66
2022/12/03 07:28:39;;;;;;;15.57;7.20;;;2.20;99.90;;;;;;5022833;28;20096;-66
2022/12/03 07:31:05;;;;;;;18.58;6.22;;;2.20;99.90;;;;;;5024507;28;20619;-65
2022/12/03 07:33:30;;;;;;;13.70;5.65;;;2.20;99.90;;;;;;5023352;28;20041;-65
2022/12/03 07:35:56;;;;;;;15.85;7.28;;;2.20;99.90;;;;;;5024249;28;20025;-65
2022/12/03 07:38:24;;;;;;;14.77;5.03;;;2.20;99.90;;;;;;5024273;28;20080;-69
2022/12/03 07:40:50;;;;;;;6.65;4.07;;;2.20;99.90;;;;;;5023244;28;20055;-64
2022/12/03 07:43:15;;;;;;;14.20;6.63;;;2.20;99.90;;;;;;5027947;28;20537;-66
2022/12/03 07:45:41;;;;;;;12.95;6.85;;;2.20;99.90;;;;;;5022426;28;20029;-65
2022/12/03 07:48:07;;;;;;;16.30;6.38;;;2.10;99.90;;;;;;5006294;28;20029;-68
2022/12/03 07:50:33;;;;;;;13.32;7.20;;;2.20;99.90;;;;;;5022399;28;20036;-65
2022/12/03 07:52:59;;;;;;;16.02;5.15;;;2.10;99.90;;;;;;5009869;28;20478;-66
2022/12/03 07:55:25;;;;;;;16.33;7.25;;;2.10;99.90;;;;;;4991459;28;20060;-66
2022/12/03 07:57:51;;;;;;;12.05;5.43;;;2.10;99.90;;;;;;5031314;28;20032;-65
2022/12/03 08:00:18;;;;;;;17.77;6.57;;;2.10;99.90;;;;;;5007251;28;20160;-65
2022/12/03 08:02:44;;;;;;;21.77;5.95;;;2.20;99.90;;;;;;5007582;28;20034;-65
2022/12/03 08:05:11;;;;;;;21.58;7.10;;;2.20;99.90;;;;;;5016469;28;20109;-65
2022/12/03 08:07:36;;;;;;;15.90;5.82;;;2.30;99.90;;;;;;5027300;28;20037;-65
2022/12/03 08:10:04;;;;;;;16.77;6.43;;;2.30;99.90;;;;;;5015745;28;20034;-65
2022/12/03 08:12:41;;;;;;;21.35;7.47;;;2.40;99.90;;;;;;5025242;28;20025;-64
2022/12/03 08:15:28;;;;;;;16.88;6.35;;;2.50;99.90;;;;;;5004062;28;20030;-65
2022/12/03 08:17:58;;;;;;;16.63;5.57;;;2.50;99.90;;;;;;4982661;28;20026;-65
2022/12/03 08:20:33;;;;;;;17.73;7.13;;;2.60;99.90;;;;;;5004992;28;20022;-66
2022/12/03 08:23:02;;;;;;;15.15;6.22;;;2.80;99.90;;;;;;4985220;28;20358;-66
2022/12/03 08:25:32;;;;;;;19.30;5.07;;;2.70;99.90;;;;;;5012963;28;20165;-66
2022/12/03 08:28:27;;;;;;;16.35;5.95;;;2.70;99.90;;;;;;4987927;28;20038;-66
2022/12/03 08:31:24;;;;;;;27.48;10.93;;;2.80;99.90;;;;;;4997129;28;20517;-66
2022/12/03 08:33:54;;;;;;;15.05;8.05;;;2.80;99.90;;;;;;5011721;28;20067;-66
2022/12/03 08:36:31;;;;;;;19.55;7.00;;;2.80;99.90;;;;;;4996263;28;20397;-66
2022/12/03 08:39:21;;;;;;;11.15;5.82;;;2.90;99.90;;;;;;5011857;28;20378;-66
2022/12/03 08:45:36;;;;;;;15.18;7.82;;;3.10;99.90;;;;;;4949820;28;20118;-65
2022/12/03 08:48:22;;;;;;;14.90;5.75;;;3.20;99.90;;;;;;4962575;28;20027;-65
2022/12/03 08:50:47;;;;;;;15.88;8.05;;;3.30;99.90;;;;;;4958815;28;20051;-65
2022/12/03 08:53:13;;;;;;;12.43;7.05;;;3.30;99.90;;;;;;4961419;28;20416;-65
2022/12/03 08:55:46;;;;;;;23.42;6.72;;;3.40;99.90;;;;;;4968957;28;20310;-65
2022/12/03 08:58:42;;;;;;;15.63;7.22;;;3.40;99.90;;;;;;4949665;28;20035;-65
2022/12/03 09:01:10;;;;;;;19.10;7.18;;;3.50;99.90;;;;;;4957355;28;20078;-65
2022/12/03 09:03:45;;;;;;;17.33;6.20;;;3.60;99.90;;;;;;4952883;28;20045;-65
2022/12/03 09:06:11;;;;;;;15.93;6.05;;;3.60;99.90;;;;;;4969494;28;20054;-65
2022/12/03 09:08:36;;;;;;;11.40;6.35;;;3.70;99.90;;;;;;4952698;28;20491;-65
2022/12/03 09:11:02;;;;;;;12.75;5.70;;;3.80;99.90;;;;;;4961645;28;20027;-65
2022/12/03 09:13:28;;;;;;;19.45;6.90;;;3.90;99.90;;;;;;4934106;28;20043;-65
2022/12/03 09:15:53;;;;;;;24.42;7.43;;;3.90;99.90;;;;;;4982520;28;20163;-65
2022/12/03 09:18:19;;;;;;;9.25;5.90;;;4.00;99.90;;;;;;5021665;28;20080;-65
2022/12/03 09:20:45;;;;;;;14.70;6.68;;;3.90;99.90;;;;;;5022537;28;20089;-65
2022/12/03 09:23:11;;;;;;;17.08;7.68;;;4.00;99.90;;;;;;5013531;28;20025;-65
2022/12/03 09:25:36;;;;;;;18.65;6.38;;;4.10;99.90;;;;;;5021968;28;20082;-65
2022/12/03 09:28:02;;;;;;;23.40;7.22;;;4.30;99.90;;;;;;5029107;28;20033;-65
2022/12/03 09:30:28;;;;;;;19.50;6.63;;;4.40;99.90;;;;;;5024822;28;20049;-65
2022/12/03 09:32:54;;;;;;;15.93;6.20;;;4.50;99.90;;;;;;5007065;28;20191;-65
2022/12/03 09:35:19;;;;;;;14.90;6.03;;;4.50;99.90;;;;;;5009970;28;20060;-65
2022/12/03 09:37:45;;;;;;;18.83;7.60;;;4.70;99.90;;;;;;5019757;28;20397;-65
2022/12/03 09:40:14;;;;;;;23.63;7.45;;;4.80;99.90;;;;;;5012766;28;20030;-65
2022/12/03 09:42:40;;;;;;;11.57;6.28;;;4.80;99.90;;;;;;5003015;28;20035;-65
2022/12/03 09:45:11;;;;;;;18.52;7.35;;;4.90;99.90;;;;;;5012707;28;20404;-65
2022/12/03 09:47:40;;;;;;;17.25;5.18;;;5.40;99.90;;;;;;5002587;28;20022;-66
2022/12/03 09:50:09;;;;;;;12.00;6.05;;;5.60;99.90;;;;;;4997366;28;20037;-65
2022/12/03 09:52:35;;;;;;;17.55;6.45;;;5.80;99.90;;;;;;4998009;28;20025;-65
2022/12/03 09:55:14;;;;;;;14.07;6.97;;;6.50;99.90;;;;;;5010060;28;20029;-65
2022/12/03 09:57:40;;;;;;;12.40;4.95;;;7.10;99.90;;;;;;4994189;28;20030;-65
2022/12/03 10:00:18;;;;;;;16.90;7.47;;;7.80;99.90;;;;;;5006030;28;20026;-65
2022/12/03 10:02:45;;;;;;;19.90;7.57;;;8.40;99.90;;;;;;5008295;28;20056;-66
2022/12/03 10:05:13;;;;;;;19.58;5.85;;;8.80;99.90;;;;;;5002289;28;20025;-66
2022/12/03 10:07:39;;;;;;;12.05;5.45;;;9.70;99.90;;;;;;4994796;28;20108;-71
2022/12/03 10:10:14;;;;;;;14.40;5.28;;;10.50;99.90;;;;;;5002152;28;20030;-73
2022/12/03 10:12:40;;;;;;;13.60;5.38;;;10.90;99.90;;;;;;5008246;28;20060;-73
2022/12/03 10:15:18;;;;;;;10.02;5.20;;;10.80;99.90;;;;;;5008443;28;20406;-73
2022/12/03 10:17:47;;;;;;;14.15;6.00;;;10.70;99.90;;;;;;5003699;28;20054;-73
2022/12/03 10:20:16;;;;;;;14.55;5.97;;;10.80;99.90;;;;;;5015535;28;20060;-73
2022/12/03 10:22:42;;;;;;;13.10;5.60;;;10.30;99.90;;;;;;5015845;28;20030;-76
2022/12/03 10:25:13;;;;;;;17.35;6.28;;;10.70;99.90;;;;;;5023821;28;20064;-76
2022/12/03 10:27:40;;;;;;;14.13;6.03;;;10.20;99.90;;;;;;5008745;28;20087;-77
2022/12/03 10:30:25;;;;;;;15.90;5.95;;;10.00;99.90;;;;;;5023116;28;20025;-77
2022/12/03 10:32:50;;;;;;;12.63;6.05;;;10.20;99.90;;;;;;5022621;28;20029;-76
2022/12/03 10:35:25;;;;;;;18.27;6.20;;;10.00;99.90;;;;;;5024739;28;20382;-76
2022/12/03 10:38:15;;;;;;;12.95;6.90;;;9.60;99.90;;;;;;5007938;28;20057;-76
2022/12/03 10:40:41;;;;;;;14.82;6.53;;;9.00;99.90;;;;;;5031790;28;20029;-76
2022/12/03 10:43:20;;;;;;;14.68;6.65;;;8.40;99.90;;;;;;5023690;28;20049;-77
2022/12/03 10:46:09;;;;;;;18.38;6.53;;;8.10;99.90;;;;;;5032350;28;20037;-77
2022/12/03 10:48:37;;;;;;;14.30;5.78;;;7.80;99.90;;;;;;5014359;28;20021;-77
2022/12/03 10:51:19;;;;;;;12.02;5.40;;;7.50;99.90;;;;;;5013969;28;20060;-76
2022/12/03 10:53:47;;;;;;;16.58;6.88;;;7.10;99.90;;;;;;5012138;28;20040;-76
2022/12/03 10:56:24;;;;;;;15.13;6.15;;;7.00;99.90;;;;;;5015077;28;20033;-76
2022/12/03 10:58:50;;;;;;;14.82;6.35;;;6.80;99.90;;;;;;5023606;28;20036;-76
2022/12/03 11:01:22;;;;;;;16.38;6.10;;;6.60;99.90;;;;;;5014342;28;20025;-76
2022/12/03 11:03:48;;;;;;;18.67;6.93;;;6.60;99.90;;;;;;5029181;28;20104;-76
2022/12/03 11:06:21;;;;;;;17.08;6.60;;;6.40;99.90;;;;;;5014966;28;20503;-75
2022/12/03 11:08:53;;;;;;;13.73;5.80;;;6.40;99.90;;;;;;5028053;28;20069;-75
2022/12/03 11:11:28;;;;;;;12.95;5.15;;;6.40;99.90;;;;;;5003583;28;20046;-76
2022/12/03 11:14:02;;;;;;;17.88;7.35;;;6.60;99.90;;;;;;5012856;28;20037;-75
2022/12/03 11:16:51;;;;;;;15.55;6.22;;;6.60;99.90;;;;;;5009657;28;20029;-76
2022/12/03 11:19:38;;;;;;;13.88;6.38;;;6.40;99.90;;;;;;5006217;28;20041;-76
2022/12/03 11:22:03;;;;;;;17.65;6.03;;;6.60;99.90;;;;;;5015398;28;20044;-76
2022/12/03 11:24:34;;;;;;;16.25;5.90;;;6.70;99.90;;;;;;5024322;28;20041;-76
2022/12/03 11:27:00;;;;;;;14.18;7.00;;;6.70;99.90;;;;;;4996616;28;20041;-76
2022/12/03 11:29:59;;;;;;;19.80;7.03;;;6.20;99.90;;;;;;5024118;28;20044;-76
2022/12/03 11:32:37;;;;;;;14.90;7.07;;;5.90;99.90;;;;;;5012444;28;20078;-76
2022/12/03 11:35:14;;;;;;;18.05;7.60;;;6.00;99.90;;;;;;5000598;28;20045;-76
2022/12/03 11:37:40;;;;;;;14.13;6.43;;;5.80;99.90;;;;;;5010816;28;20037;-76
2022/12/03 11:40:27;;;;;;;13.77;6.68;;;5.50;99.90;;;;;;5025545;28;20021;-76
2022/12/03 11:42:52;;;;;;;13.55;5.63;;;5.70;99.90;;;;;;5006673;28;20028;-75
2022/12/03 11:45:35;;;;;;;19.67;7.10;;;6.00;99.90;;;;;;5027099;28;20033;-75
2022/12/03 11:48:13;;;;;;;17.13;7.00;;;5.80;99.90;;;;;;5003596;28;20040;-75
2022/12/03 11:50:52;;;;;;;18.52;6.00;;;5.80;99.90;;;;;;4979904;28;20671;-76
2022/12/03 11:53:29;;;;;;;17.20;7.38;;;5.90;99.90;;;;;;5014259;28;20549;-75
2022/12/03 11:56:07;;;;;;;15.95;7.32;;;5.80;99.90;;;;;;5001290;28;20374;-66
2022/12/03 11:58:41;;;;;;;14.05;6.15;;;5.80;99.90;;;;;;5007059;28;20082;-65
2022/12/03 12:01:07;;;;;;;11.95;6.07;;;5.70;99.90;;;;;;4986111;28;20022;-64
2022/12/03 12:03:42;;;;;;;21.85;7.78;;;5.50;99.90;;;;;;5000985;28;20084;-66
2022/12/03 12:06:15;;;;;;;14.45;7.53;;;5.50;99.90;;;;;;5004883;28;20501;-65
2022/12/03 12:09:02;;;;;;;15.82;5.95;;;5.50;99.90;;;;;;5012980;28;20393;-66
2022/12/03 12:11:34;;;;;;;15.18;7.38;;;5.50;99.90;;;;;;5010263;28;20074;-63
2022/12/03 12:14:11;;;;;;;20.40;7.85;;;5.40;99.90;;;;;;4996020;28;20040;-65
2022/12/03 12:16:53;;;;;;;18.80;6.55;;;5.40;99.90;;;;;;5005496;28;20041;-65
2022/12/03 12:19:42;;;;;;;13.75;6.32;;;5.50;99.90;;;;;;5024507;28;20387;-65
2022/12/03 12:22:28;;;;;;;12.75;5.00;;;5.60;99.90;;;;;;5009938;28;20104;-65
2022/12/03 12:25:00;;;;;;;16.15;8.07;;;5.60;99.90;;;;;;4994033;28;20088;-65
2022/12/03 12:27:44;;;;;;;18.70;8.02;;;5.60;99.90;;;;;;5011331;28;20478;-66
2022/12/03 12:30:18;;;;;;;23.27;6.10;;;5.50;99.90;;;;;;5019220;28;20037;-66
2022/12/03 12:32:47;;;;;;;15.00;8.10;;;5.60;99.90;;;;;;5002675;28;20041;-67
2022/12/03 12:35:31;;;;;;;17.58;7.70;;;5.50;99.90;;;;;;5025579;28;20858;-65
2022/12/03 12:38:09;;;;;;;30.63;7.78;;;5.30;99.90;;;;;;5001792;28;20100;-64
2022/12/03 12:40:39;;;;;;;16.98;7.82;;;5.40;99.90;;;;;;5026407;28;20146;-63
2022/12/03 12:43:10;;;;;;;14.48;5.63;;;5.40;99.90;;;;;;5003516;28;20095;-64
2022/12/03 12:45:40;;;;;;;13.85;6.20;;;5.40;99.90;;;;;;5026605;28;20044;-65
2022/12/03 12:48:08;;;;;;;15.82;6.32;;;5.50;99.90;;;;;;5004566;28;20037;-64
2022/12/03 12:51:10;;;;;;;25.00;9.52;;;5.50;99.90;;;;;;4975886;28;20062;-64
2022/12/03 12:53:41;;;;;;;17.30;6.70;;;5.50;99.90;;;;;;4997906;28;20041;-65
2022/12/03 12:56:29;;;;;;;18.25;7.57;;;5.50;99.90;;;;;;4983722;28;20026;-64
2022/12/03 12:58:59;;;;;;;16.65;7.72;;;5.60;99.90;;;;;;5001959;28;20101;-65
2022/12/03 13:01:29;;;;;;;19.35;7.93;;;5.60;99.90;;;;;;5001010;28;20057;-67
2022/12/03 13:03:56;;;;;;;21.48;8.10;;;5.60;99.90;;;;;;5010986;28;20080;-65
2022/12/03 13:06:28;;;;;;;14.40;7.20;;;5.50;99.90;;;;;;5004277;28;20613;-63
2022/12/03 13:08:54;;;;;;;14.68;7.13;;;5.50;99.90;;;;;;5009914;28;20038;-64
2022/12/03 13:11:23;;;;;;;17.42;7.90;;;5.60;99.90;;;;;;4998814;28;20038;-63
2022/12/03 13:13:49;;;;;;;18.52;6.38;;;5.50;99.90;;;;;;5020851;28;20072;-64
2022/12/03 13:16:26;;;;;;;16.55;5.85;;;5.60;99.90;;;;;;5017973;28;20034;-63
2022/12/03 13:18:55;;;;;;;18.23;7.47;;;5.50;99.90;;;;;;5025068;28;20042;-64
2022/12/03 13:21:38;;;;;;;14.30;6.80;;;5.50;99.90;;;;;;5006407;28;20109;-64
2022/12/03 13:24:38;;;;;;;16.27;6.60;;;5.50;99.90;;;;;;5019757;28;20036;-64
2022/12/03 13:27:15;;;;;;;15.75;7.35;;;5.40;99.90;;;;;;4992595;28;20037;-64